Molenez — FGA2273 — position and weather

sailwx.info

Track history (hours):
 
Tides and Currents Weather Stations Pressure Air Temp Water Temp Dewpoint Dewpoint Depression Visibility Wind Speed Wind Dir Waves Ship Positions

Molenez

Last reported at 2017-Nov-18 20:00 UTC. Time now 2017-Nov-18 20:01 UTC.
Position N 48°23' W 004°29'.

Length 37 m; draft 2.4 m.

MMSI: 227008170.

Date/timePositionNaut miles runAvg speedWind from/ knotsBaromVisibWave heightAir tempDewpointWater temp
2017-Nov-18 20:00N 48°23' W 004°29'0 0.0
2017-Nov-18 19:30N 48°23' W 004°29'0 0.0
2017-Nov-18 19:00N 48°23' W 004°29'0 0.0
2017-Nov-18 18:30N 48°23' W 004°29'0 0.0
2017-Nov-18 18:00N 48°23' W 004°29'0 0.0
2017-Nov-18 17:30N 48°23' W 004°29'0 0.0
2017-Nov-18 17:00N 48°23' W 004°29'0 0.0
2017-Nov-18 16:30N 48°23' W 004°29'0 0.0
2017-Nov-18 16:00N 48°23' W 004°29'0 0.0
2017-Nov-18 15:30N 48°23' W 004°29'0 0.0
2017-Nov-18 15:00N 48°23' W 004°29'0 0.0
2017-Nov-18 14:30N 48°23' W 004°29'0 0.0
2017-Nov-18 14:00N 48°23' W 004°29'0 0.0
2017-Nov-18 13:30N 48°23' W 004°29'0 0.0
2017-Nov-18 13:00N 48°23' W 004°29'0 0.0
2017-Nov-18 12:30N 48°23' W 004°29'0 0.0
2017-Nov-18 12:00N 48°23' W 004°29'0 0.0
2017-Nov-18 11:31N 48°23' W 004°29'0 0.0
2017-Nov-18 11:00N 48°23' W 004°29'0 0.0
2017-Nov-18 10:30N 48°23' W 004°29'0 0.0
2017-Nov-18 10:00N 48°23' W 004°29'0 0.0
2017-Nov-18 09:30N 48°23' W 004°29'0 0.0
2017-Nov-18 09:01N 48°23' W 004°29'0 0.0
2017-Nov-18 08:30N 48°23' W 004°29'0 0.0
2017-Nov-18 08:00N 48°23' W 004°29'0 0.0
2017-Nov-18 07:30N 48°23' W 004°29'0 0.0
2017-Nov-18 07:00N 48°23' W 004°29'0 0.0
2017-Nov-18 06:31N 48°23' W 004°29'0 0.0
2017-Nov-18 06:00N 48°23' W 004°29'0 0.0
2017-Nov-18 05:30N 48°23' W 004°29'0 0.0
2017-Nov-18 05:00N 48°23' W 004°29'0 0.0
2017-Nov-18 04:30N 48°23' W 004°29'0 0.0
2017-Nov-18 04:01N 48°23' W 004°29'0 0.0
2017-Nov-18 03:30N 48°23' W 004°29'0 0.0
2017-Nov-18 03:00N 48°23' W 004°29'0 0.0
2017-Nov-18 02:30N 48°23' W 004°29'0 0.0
2017-Nov-18 02:01N 48°23' W 004°29'0 0.0
2017-Nov-18 01:31N 48°23' W 004°29'0 0.0
2017-Nov-18 01:01N 48°23' W 004°29'0 0.0
2017-Nov-18 00:30N 48°23' W 004°29'0 0.0
2017-Nov-18 00:00N 48°23' W 004°29'0 0.0
2017-Nov-17 23:30N 48°23' W 004°29'0 0.0
2017-Nov-17 23:01N 48°23' W 004°29'0 0.0
2017-Nov-17 22:31N 48°23' W 004°29'0 0.0
2017-Nov-17 22:01N 48°23' W 004°29'0 0.0
2017-Nov-17 21:30N 48°23' W 004°29'0 0.0
2017-Nov-17 21:00N 48°23' W 004°29'0 0.0
2017-Nov-17 20:30N 48°23' W 004°29'0 0.0
2017-Nov-17 20:00N 48°23' W 004°29'0 0.0
2017-Nov-17 19:30N 48°23' W 004°29'0 0.0
2017-Nov-17 19:00N 48°23' W 004°29'0 0.0
2017-Nov-17 18:30N 48°23' W 004°29'0 0.0
2017-Nov-17 18:00N 48°23' W 004°29'0 0.0
2017-Nov-17 17:30N 48°23' W 004°29'0 0.0
2017-Nov-17 17:00N 48°23' W 004°29'0 0.0
2017-Nov-17 16:30N 48°23' W 004°29'0 0.0
2017-Nov-17 16:00N 48°23' W 004°29'0 0.0
2017-Nov-17 15:30N 48°23' W 004°29'0 0.0
2017-Nov-17 15:01N 48°23' W 004°29'4 8.2
2017-Nov-17 14:30N 48°21' W 004°34'612.7
2017-Nov-17 14:00N 48°19' W 004°44'510.5
2017-Nov-17 13:31N 48°22' W 004°50'510.3
2017-Nov-17 12:59N 48°24' W 004°57'0 0.1
2017-Nov-17 12:30N 48°24' W 004°57'510.0
2017-Nov-17 12:00N 48°28' W 005°02'1 1.5
2017-Nov-17 11:30N 48°28' W 005°03'0 0.0
2017-Nov-17 11:00N 48°28' W 005°03'0 0.0
2017-Nov-17 10:30N 48°28' W 005°03'0 0.0
2017-Nov-17 09:59N 48°28' W 005°03'4 8.4
2017-Nov-17 09:28N 48°26' W 004°58'1 2.7
2017-Nov-17 09:00N 48°25' W 004°56'611.3
2017-Nov-17 08:30N 48°23' W 004°49'5 9.4
2017-Nov-17 08:00N 48°19' W 004°44'713.4
2017-Nov-17 07:31N 48°21' W 004°34'4 7.5
2017-Nov-17 07:00N 48°23' W 004°29'0 0.0
2017-Nov-17 06:30N 48°23' W 004°29'0 0.0
2017-Nov-17 06:00N 48°23' W 004°29'0 0.0
2017-Nov-17 05:30N 48°23' W 004°29'0 0.0
2017-Nov-17 05:00N 48°23' W 004°29'0 0.0
2017-Nov-17 04:30N 48°23' W 004°29'0 0.0
2017-Nov-17 04:01N 48°23' W 004°29'0 0.0
2017-Nov-17 03:30N 48°23' W 004°29'0 0.0
2017-Nov-17 03:01N 48°23' W 004°29'0 0.0
2017-Nov-17 02:30N 48°23' W 004°29'0 0.0
2017-Nov-17 02:00N 48°23' W 004°29'0 0.0
2017-Nov-17 01:30N 48°23' W 004°29'0 0.0
2017-Nov-17 01:01N 48°23' W 004°29'0 0.0
2017-Nov-17 00:31N 48°23' W 004°29'0 0.0
2017-Nov-17 00:00N 48°23' W 004°29'0 0.0
2017-Nov-16 23:30N 48°23' W 004°29'0 0.0
2017-Nov-16 23:00N 48°23' W 004°29'0 0.0
2017-Nov-16 22:30N 48°23' W 004°29'0 0.0
2017-Nov-16 22:01N 48°23' W 004°29'0 0.0
2017-Nov-16 21:30N 48°23' W 004°29'0 0.0
2017-Nov-16 21:00N 48°23' W 004°29'0 0.0
2017-Nov-16 20:30N 48°23' W 004°29'0 0.0
2017-Nov-16 20:00N 48°23' W 004°29'0 0.0
2017-Nov-16 19:30N 48°23' W 004°29'0 0.0
2017-Nov-16 19:00N 48°23' W 004°29'0 0.0
2017-Nov-16 18:30N 48°23' W 004°29'0 0.0
2017-Nov-16 18:00N 48°23' W 004°29'0 0.0
2017-Nov-16 17:30N 48°23' W 004°29'0 0.0
2017-Nov-16 17:00N 48°23' W 004°29'0 0.0
2017-Nov-16 16:30N 48°23' W 004°29'0 0.0
2017-Nov-16 16:00N 48°23' W 004°29'0 0.0
2017-Nov-16 15:30N 48°23' W 004°29'0 0.8
2017-Nov-16 15:00N 48°22' W 004°29'611.6
2017-Nov-16 14:31N 48°20' W 004°37'612.1
2017-Nov-16 14:01N 48°19' W 004°46'611.6
2017-Nov-16 13:30N 48°23' W 004°52'3 6.9
2017-Nov-16 13:00N 48°24' W 004°57'0 0.0
2017-Nov-16 12:31N 48°24' W 004°57'0 0.3
2017-Nov-16 12:01N 48°24' W 004°57'5 9.8
2017-Nov-16 11:31N 48°28' W 005°02'1 2.1
2017-Nov-16 11:00N 48°28' W 005°03'0 0.0
2017-Nov-16 10:31N 48°28' W 005°03'0 0.0
2017-Nov-16 10:01N 48°28' W 005°03'0 0.0
2017-Nov-16 09:31N 48°28' W 005°03'1 1.7
2017-Nov-16 09:01N 48°28' W 005°02'612.6
2017-Nov-16 08:31N 48°26' W 004°53'611.9
2017-Nov-16 08:01N 48°21' W 004°47'5 9.8
2017-Nov-16 07:31N 48°20' W 004°40'713.3
2017-Nov-16 07:00N 48°22' W 004°31'2 3.3
2017-Nov-16 06:30N 48°23' W 004°29'0 0.0
2017-Nov-16 06:01N 48°23' W 004°29'0 0.0
2017-Nov-16 05:31N 48°23' W 004°29'0 0.0
2017-Nov-16 05:00N 48°23' W 004°29'0 0.0
2017-Nov-16 04:30N 48°23' W 004°29'0 0.0
2017-Nov-16 04:00N 48°23' W 004°29'0 0.0
2017-Nov-16 03:30N 48°23' W 004°29'0 0.0
2017-Nov-16 03:00N 48°23' W 004°29'0 0.0
2017-Nov-16 02:30N 48°23' W 004°29'0 0.0
2017-Nov-16 02:00N 48°23' W 004°29'0 0.0
2017-Nov-16 01:31N 48°23' W 004°29'0 0.0
2017-Nov-16 01:00N 48°23' W 004°29'0 0.0
2017-Nov-16 00:30N 48°23' W 004°29'0 0.0
2017-Nov-16 00:00N 48°23' W 004°29'0 0.0
2017-Nov-15 23:30N 48°23' W 004°29'0 0.0
2017-Nov-15 23:00N 48°23' W 004°29'0 0.0
2017-Nov-15 22:30N 48°23' W 004°29'0 0.0
2017-Nov-15 22:00N 48°23' W 004°29'0 0.0
2017-Nov-15 21:30N 48°23' W 004°29'0 0.0
2017-Nov-15 21:00N 48°23' W 004°29'0 0.0
2017-Nov-15 20:30N 48°23' W 004°29'0 0.0
2017-Nov-15 20:01N 48°23' W 004°29'0 0.0
2017-Nov-15 19:30N 48°23' W 004°29'0 0.0
2017-Nov-15 19:00N 48°23' W 004°29'0 0.0
2017-Nov-15 18:30N 48°23' W 004°29'0 0.0
2017-Nov-15 18:00N 48°23' W 004°29'0 0.0
2017-Nov-15 17:30N 48°23' W 004°29'0 0.0
2017-Nov-15 17:00N 48°23' W 004°29'0 0.0
2017-Nov-15 16:31N 48°23' W 004°29'0 0.0
2017-Nov-15 16:00N 48°23' W 004°29'0 0.0
2017-Nov-15 15:30N 48°23' W 004°29'0 0.0
2017-Nov-14 16:27N 48°23' W 004°29'0 0.0
2017-Nov-14 16:00N 48°23' W 004°29'0 0.3
2017-Nov-14 15:30N 48°23' W 004°29'1 2.4
2017-Nov-14 15:01N 48°23' W 004°27'0 0.1
2017-Nov-14 14:30N 48°23' W 004°27'2 4.6
2017-Nov-14 14:00N 48°22' W 004°30'612.2
2017-Nov-14 13:30N 48°19' W 004°38'612.0
2017-Nov-14 13:00N 48°15' W 004°45'612.2
2017-Nov-14 12:30N 48°09' W 004°47'612.4
2017-Nov-14 12:01N 48°03' W 004°51'1 2.2
2017-Nov-14 11:30N 48°02' W 004°51'0 0.0
2017-Nov-14 11:00N 48°02' W 004°51'0 0.0
2017-Nov-14 10:31N 48°02' W 004°51'0 0.0
2017-Nov-14 10:00N 48°02' W 004°51'3 6.9
2017-Nov-14 09:30N 48°05' W 004°48'612.3
2017-Nov-14 09:00N 48°10' W 004°43'612.5
2017-Nov-14 08:30N 48°16' W 004°38'611.2
2017-Nov-14 08:01N 48°20' W 004°34'4 7.9
2017-Nov-14 07:31N 48°23' W 004°29'  
2017-Nov-10 16:51N 48°23' W 004°29'0 0.0
2017-Nov-10 16:31N 48°23' W 004°29'0 0.0
2017-Nov-10 16:00N 48°23' W 004°29'4 7.2
2017-Nov-10 15:30N 48°21' W 004°34'612.7
2017-Nov-10 15:01N 48°20' W 004°43'510.3
2017-Nov-10 14:30N 48°23' W 004°49'611.2
2017-Nov-10 14:00N 48°25' W 004°57'1 1.2
2017-Nov-10 13:30N 48°24' W 004°57'3 6.6
2017-Nov-10 13:01N 48°27' W 004°60'3 5.2
2017-Nov-10 12:30N 48°28' W 005°03'0 0.0
2017-Nov-10 12:00N 48°28' W 005°03'0 0.0
2017-Nov-10 11:30N 48°28' W 005°03'0 0.0
2017-Nov-10 11:00N 48°28' W 005°03'2 3.9
2017-Nov-10 10:30N 48°28' W 005°00'4 8.2
2017-Nov-10 10:00N 48°24' W 004°57'1 2.3
2017-Nov-10 09:30N 48°24' W 004°56'5 9.6
2017-Nov-10 09:00N 48°23' W 004°49'5 9.4
2017-Nov-10 08:30N 48°19' W 004°44'612.1
2017-Nov-10 08:01N 48°20' W 004°35'4 8.9
2017-Nov-10 07:30N 48°23' W 004°29'0 0.0
2017-Nov-10 07:00N 48°23' W 004°29'0 0.0
2017-Nov-10 06:30N 48°23' W 004°29'0 0.0
2017-Nov-09 20:06N 48°23' W 004°29'0 0.1
2017-Nov-09 20:01N 48°23' W 004°29'0 0.0
2017-Nov-09 19:31N 48°23' W 004°29'0 0.0
2017-Nov-09 19:00N 48°23' W 004°29'4 7.6
2017-Nov-09 18:30N 48°21' W 004°34'713.0
2017-Nov-09 18:01N 48°20' W 004°44'4 8.7
2017-Nov-09 17:30N 48°22' W 004°48'611.2
2017-Nov-09 17:00N 48°25' W 004°56'1 2.1
2017-Nov-09 16:30N 48°24' W 004°57'2 4.4
2017-Nov-09 16:00N 48°26' W 004°58'4 7.8
2017-Nov-09 15:30N 48°28' W 005°03'0 0.0
2017-Nov-09 15:00N 48°28' W 005°03'0 0.0
2017-Nov-09 14:30N 48°28' W 005°03'0 0.0
2017-Nov-09 14:00N 48°28' W 005°03'0 0.0
2017-Nov-09 13:30N 48°28' W 005°03'0 0.0
2017-Nov-09 13:01N 48°28' W 005°03'0 0.0
2017-Nov-09 12:30N 48°28' W 005°03'0 0.0
2017-Nov-09 12:00N 48°28' W 005°03'0 0.0
2017-Nov-09 11:30N 48°28' W 005°03'5 9.6
2017-Nov-09 11:00N 48°27' W 004°56'611.5
2017-Nov-09 10:31N 48°23' W 004°50'5 9.3
2017-Nov-09 10:00N 48°19' W 004°46'612.9
2017-Nov-09 09:30N 48°20' W 004°37'611.4
2017-Nov-09 09:01N 48°23' W 004°29'0 0.5
2017-Nov-09 08:30N 48°23' W 004°29'0 0.0
2017-Nov-09 08:00N 48°23' W 004°29'0 0.0
2017-Nov-09 07:29N 48°23' W 004°29'0 0.0
2017-Nov-09 06:59N 48°23' W 004°29'0 0.0
2017-Nov-09 06:29N 48°23' W 004°29'  
Track history (hours):
 
Tides and Currents Weather Stations Pressure Air Temp Water Temp Dewpoint Dewpoint Depression Visibility Wind Speed Wind Dir Waves Ship Positions

Molenez

Last reported at 2017-Nov-18 20:00 UTC. Time now 2017-Nov-18 20:01 UTC.
Position N 48°23' W 004°29'.

Length 37 m; draft 2.4 m.

MMSI: 227008170.

Date/timePositionNaut miles runAvg speedWind from/ knotsBaromVisibWave heightAir tempDewpointWater temp
2017-Nov-18 20:00N 48°23' W 004°29'0 0.0
2017-Nov-18 19:30N 48°23' W 004°29'0 0.0
2017-Nov-18 19:00N 48°23' W 004°29'0 0.0
2017-Nov-18 18:30N 48°23' W 004°29'0 0.0
2017-Nov-18 18:00N 48°23' W 004°29'0 0.0
2017-Nov-18 17:30N 48°23' W 004°29'0 0.0
2017-Nov-18 17:00N 48°23' W 004°29'0 0.0
2017-Nov-18 16:30N 48°23' W 004°29'0 0.0
2017-Nov-18 16:00N 48°23' W 004°29'0 0.0
2017-Nov-18 15:30N 48°23' W 004°29'0 0.0
2017-Nov-18 15:00N 48°23' W 004°29'0 0.0
2017-Nov-18 14:30N 48°23' W 004°29'0 0.0
2017-Nov-18 14:00N 48°23' W 004°29'0 0.0
2017-Nov-18 13:30N 48°23' W 004°29'0 0.0
2017-Nov-18 13:00N 48°23' W 004°29'0 0.0
2017-Nov-18 12:30N 48°23' W 004°29'0 0.0
2017-Nov-18 12:00N 48°23' W 004°29'0 0.0
2017-Nov-18 11:31N 48°23' W 004°29'0 0.0
2017-Nov-18 11:00N 48°23' W 004°29'0 0.0
2017-Nov-18 10:30N 48°23' W 004°29'0 0.0
2017-Nov-18 10:00N 48°23' W 004°29'0 0.0
2017-Nov-18 09:30N 48°23' W 004°29'0 0.0
2017-Nov-18 09:01N 48°23' W 004°29'0 0.0
2017-Nov-18 08:30N 48°23' W 004°29'0 0.0
2017-Nov-18 08:00N 48°23' W 004°29'0 0.0
2017-Nov-18 07:30N 48°23' W 004°29'0 0.0
2017-Nov-18 07:00N 48°23' W 004°29'0 0.0
2017-Nov-18 06:31N 48°23' W 004°29'0 0.0
2017-Nov-18 06:00N 48°23' W 004°29'0 0.0
2017-Nov-18 05:30N 48°23' W 004°29'0 0.0
2017-Nov-18 05:00N 48°23' W 004°29'0 0.0
2017-Nov-18 04:30N 48°23' W 004°29'0 0.0
2017-Nov-18 04:01N 48°23' W 004°29'0 0.0
2017-Nov-18 03:30N 48°23' W 004°29'0 0.0
2017-Nov-18 03:00N 48°23' W 004°29'0 0.0
2017-Nov-18 02:30N 48°23' W 004°29'0 0.0
2017-Nov-18 02:01N 48°23' W 004°29'0 0.0
2017-Nov-18 01:31N 48°23' W 004°29'0 0.0
2017-Nov-18 01:01N 48°23' W 004°29'0 0.0
2017-Nov-18 00:30N 48°23' W 004°29'0 0.0
2017-Nov-18 00:00N 48°23' W 004°29'0 0.0
2017-Nov-17 23:30N 48°23' W 004°29'0 0.0
2017-Nov-17 23:01N 48°23' W 004°29'0 0.0
2017-Nov-17 22:31N 48°23' W 004°29'0 0.0
2017-Nov-17 22:01N 48°23' W 004°29'0 0.0
2017-Nov-17 21:30N 48°23' W 004°29'0 0.0
2017-Nov-17 21:00N 48°23' W 004°29'0 0.0
2017-Nov-17 20:30N 48°23' W 004°29'0 0.0
2017-Nov-17 20:00N 48°23' W 004°29'0 0.0
2017-Nov-17 19:30N 48°23' W 004°29'0 0.0
2017-Nov-17 19:00N 48°23' W 004°29'0 0.0
2017-Nov-17 18:30N 48°23' W 004°29'0 0.0
2017-Nov-17 18:00N 48°23' W 004°29'0 0.0
2017-Nov-17 17:30N 48°23' W 004°29'0 0.0
2017-Nov-17 17:00N 48°23' W 004°29'0 0.0
2017-Nov-17 16:30N 48°23' W 004°29'0 0.0
2017-Nov-17 16:00N 48°23' W 004°29'0 0.0
2017-Nov-17 15:30N 48°23' W 004°29'0 0.0
2017-Nov-17 15:01N 48°23' W 004°29'4 8.2
2017-Nov-17 14:30N 48°21' W 004°34'612.7
2017-Nov-17 14:00N 48°19' W 004°44'510.5
2017-Nov-17 13:31N 48°22' W 004°50'510.3
2017-Nov-17 12:59N 48°24' W 004°57'0 0.1
2017-Nov-17 12:30N 48°24' W 004°57'510.0
2017-Nov-17 12:00N 48°28' W 005°02'1 1.5
2017-Nov-17 11:30N 48°28' W 005°03'0 0.0
2017-Nov-17 11:00N 48°28' W 005°03'0 0.0
2017-Nov-17 10:30N 48°28' W 005°03'0 0.0
2017-Nov-17 09:59N 48°28' W 005°03'4 8.4
2017-Nov-17 09:28N 48°26' W 004°58'1 2.7
2017-Nov-17 09:00N 48°25' W 004°56'611.3
2017-Nov-17 08:30N 48°23' W 004°49'5 9.4
2017-Nov-17 08:00N 48°19' W 004°44'713.4
2017-Nov-17 07:31N 48°21' W 004°34'4 7.5
2017-Nov-17 07:00N 48°23' W 004°29'0 0.0
2017-Nov-17 06:30N 48°23' W 004°29'0 0.0
2017-Nov-17 06:00N 48°23' W 004°29'0 0.0
2017-Nov-17 05:30N 48°23' W 004°29'0 0.0
2017-Nov-17 05:00N 48°23' W 004°29'0 0.0
2017-Nov-17 04:30N 48°23' W 004°29'0 0.0
2017-Nov-17 04:01N 48°23' W 004°29'0 0.0
2017-Nov-17 03:30N 48°23' W 004°29'0 0.0
2017-Nov-17 03:01N 48°23' W 004°29'0 0.0
2017-Nov-17 02:30N 48°23' W 004°29'0 0.0
2017-Nov-17 02:00N 48°23' W 004°29'0 0.0
2017-Nov-17 01:30N 48°23' W 004°29'0 0.0
2017-Nov-17 01:01N 48°23' W 004°29'0 0.0
2017-Nov-17 00:31N 48°23' W 004°29'0 0.0
2017-Nov-17 00:00N 48°23' W 004°29'0 0.0
2017-Nov-16 23:30N 48°23' W 004°29'0 0.0
2017-Nov-16 23:00N 48°23' W 004°29'0 0.0
2017-Nov-16 22:30N 48°23' W 004°29'0 0.0
2017-Nov-16 22:01N 48°23' W 004°29'0 0.0
2017-Nov-16 21:30N 48°23' W 004°29'0 0.0
2017-Nov-16 21:00N 48°23' W 004°29'0 0.0
2017-Nov-16 20:30N 48°23' W 004°29'0 0.0
2017-Nov-16 20:00N 48°23' W 004°29'0 0.0
2017-Nov-16 19:30N 48°23' W 004°29'0 0.0
2017-Nov-16 19:00N 48°23' W 004°29'0 0.0
2017-Nov-16 18:30N 48°23' W 004°29'0 0.0
2017-Nov-16 18:00N 48°23' W 004°29'0 0.0
2017-Nov-16 17:30N 48°23' W 004°29'0 0.0
2017-Nov-16 17:00N 48°23' W 004°29'0 0.0
2017-Nov-16 16:30N 48°23' W 004°29'0 0.0
2017-Nov-16 16:00N 48°23' W 004°29'0 0.0
2017-Nov-16 15:30N 48°23' W 004°29'0 0.8
2017-Nov-16 15:00N 48°22' W 004°29'611.6
2017-Nov-16 14:31N 48°20' W 004°37'612.1
2017-Nov-16 14:01N 48°19' W 004°46'611.6
2017-Nov-16 13:30N 48°23' W 004°52'3 6.9
2017-Nov-16 13:00N 48°24' W 004°57'0 0.0
2017-Nov-16 12:31N 48°24' W 004°57'0 0.3
2017-Nov-16 12:01N 48°24' W 004°57'5 9.8
2017-Nov-16 11:31N 48°28' W 005°02'1 2.1
2017-Nov-16 11:00N 48°28' W 005°03'0 0.0
2017-Nov-16 10:31N 48°28' W 005°03'0 0.0
2017-Nov-16 10:01N 48°28' W 005°03'0 0.0
2017-Nov-16 09:31N 48°28' W 005°03'1 1.7
2017-Nov-16 09:01N 48°28' W 005°02'612.6
2017-Nov-16 08:31N 48°26' W 004°53'611.9
2017-Nov-16 08:01N 48°21' W 004°47'5 9.8
2017-Nov-16 07:31N 48°20' W 004°40'713.3
2017-Nov-16 07:00N 48°22' W 004°31'2 3.3
2017-Nov-16 06:30N 48°23' W 004°29'0 0.0
2017-Nov-16 06:01N 48°23' W 004°29'0 0.0
2017-Nov-16 05:31N 48°23' W 004°29'0 0.0
2017-Nov-16 05:00N 48°23' W 004°29'0 0.0
2017-Nov-16 04:30N 48°23' W 004°29'0 0.0
2017-Nov-16 04:00N 48°23' W 004°29'0 0.0
2017-Nov-16 03:30N 48°23' W 004°29'0 0.0
2017-Nov-16 03:00N 48°23' W 004°29'0 0.0
2017-Nov-16 02:30N 48°23' W 004°29'0 0.0
2017-Nov-16 02:00N 48°23' W 004°29'0 0.0
2017-Nov-16 01:31N 48°23' W 004°29'0 0.0
2017-Nov-16 01:00N 48°23' W 004°29'0 0.0
2017-Nov-16 00:30N 48°23' W 004°29'0 0.0
2017-Nov-16 00:00N 48°23' W 004°29'0 0.0
2017-Nov-15 23:30N 48°23' W 004°29'0 0.0
2017-Nov-15 23:00N 48°23' W 004°29'0 0.0
2017-Nov-15 22:30N 48°23' W 004°29'0 0.0
2017-Nov-15 22:00N 48°23' W 004°29'0 0.0
2017-Nov-15 21:30N 48°23' W 004°29'0 0.0
2017-Nov-15 21:00N 48°23' W 004°29'0 0.0
2017-Nov-15 20:30N 48°23' W 004°29'0 0.0
2017-Nov-15 20:01N 48°23' W 004°29'0 0.0
2017-Nov-15 19:30N 48°23' W 004°29'0 0.0
2017-Nov-15 19:00N 48°23' W 004°29'0 0.0
2017-Nov-15 18:30N 48°23' W 004°29'0 0.0
2017-Nov-15 18:00N 48°23' W 004°29'0 0.0
2017-Nov-15 17:30N 48°23' W 004°29'0 0.0
2017-Nov-15 17:00N 48°23' W 004°29'0 0.0
2017-Nov-15 16:31N 48°23' W 004°29'0 0.0
2017-Nov-15 16:00N 48°23' W 004°29'0 0.0
2017-Nov-15 15:30N 48°23' W 004°29'0 0.0
2017-Nov-14 16:27N 48°23' W 004°29'0 0.0
2017-Nov-14 16:00N 48°23' W 004°29'0 0.3
2017-Nov-14 15:30N 48°23' W 004°29'1 2.4
2017-Nov-14 15:01N 48°23' W 004°27'0 0.1
2017-Nov-14 14:30N 48°23' W 004°27'2 4.6
2017-Nov-14 14:00N 48°22' W 004°30'612.2
2017-Nov-14 13:30N 48°19' W 004°38'612.0
2017-Nov-14 13:00N 48°15' W 004°45'612.2
2017-Nov-14 12:30N 48°09' W 004°47'612.4
2017-Nov-14 12:01N 48°03' W 004°51'1 2.2
2017-Nov-14 11:30N 48°02' W 004°51'0 0.0
2017-Nov-14 11:00N 48°02' W 004°51'0 0.0
2017-Nov-14 10:31N 48°02' W 004°51'0 0.0
2017-Nov-14 10:00N 48°02' W 004°51'3 6.9
2017-Nov-14 09:30N 48°05' W 004°48'612.3
2017-Nov-14 09:00N 48°10' W 004°43'612.5
2017-Nov-14 08:30N 48°16' W 004°38'611.2
2017-Nov-14 08:01N 48°20' W 004°34'4 7.9
2017-Nov-14 07:31N 48°23' W 004°29'  
2017-Nov-10 16:51N 48°23' W 004°29'0 0.0
2017-Nov-10 16:31N 48°23' W 004°29'0 0.0
2017-Nov-10 16:00N 48°23' W 004°29'4 7.2
2017-Nov-10 15:30N 48°21' W 004°34'612.7
2017-Nov-10 15:01N 48°20' W 004°43'510.3
2017-Nov-10 14:30N 48°23' W 004°49'611.2
2017-Nov-10 14:00N 48°25' W 004°57'1 1.2
2017-Nov-10 13:30N 48°24' W 004°57'3 6.6
2017-Nov-10 13:01N 48°27' W 004°60'3 5.2
2017-Nov-10 12:30N 48°28' W 005°03'0 0.0
2017-Nov-10 12:00N 48°28' W 005°03'0 0.0
2017-Nov-10 11:30N 48°28' W 005°03'0 0.0
2017-Nov-10 11:00N 48°28' W 005°03'2 3.9
2017-Nov-10 10:30N 48°28' W 005°00'4 8.2
2017-Nov-10 10:00N 48°24' W 004°57'1 2.3
2017-Nov-10 09:30N 48°24' W 004°56'5 9.6
2017-Nov-10 09:00N 48°23' W 004°49'5 9.4
2017-Nov-10 08:30N 48°19' W 004°44'612.1
2017-Nov-10 08:01N 48°20' W 004°35'4 8.9
2017-Nov-10 07:30N 48°23' W 004°29'0 0.0
2017-Nov-10 07:00N 48°23' W 004°29'0 0.0
2017-Nov-10 06:30N 48°23' W 004°29'0 0.0
2017-Nov-09 20:06N 48°23' W 004°29'0 0.1
2017-Nov-09 20:01N 48°23' W 004°29'0 0.0
2017-Nov-09 19:31N 48°23' W 004°29'0 0.0
2017-Nov-09 19:00N 48°23' W 004°29'4 7.6
2017-Nov-09 18:30N 48°21' W 004°34'713.0
2017-Nov-09 18:01N 48°20' W 004°44'4 8.7
2017-Nov-09 17:30N 48°22' W 004°48'611.2
2017-Nov-09 17:00N 48°25' W 004°56'1 2.1
2017-Nov-09 16:30N 48°24' W 004°57'2 4.4
2017-Nov-09 16:00N 48°26' W 004°58'4 7.8
2017-Nov-09 15:30N 48°28' W 005°03'0 0.0
2017-Nov-09 15:00N 48°28' W 005°03'0 0.0
2017-Nov-09 14:30N 48°28' W 005°03'0 0.0
2017-Nov-09 14:00N 48°28' W 005°03'0 0.0
2017-Nov-09 13:30N 48°28' W 005°03'0 0.0
2017-Nov-09 13:01N 48°28' W 005°03'0 0.0
2017-Nov-09 12:30N 48°28' W 005°03'0 0.0
2017-Nov-09 12:00N 48°28' W 005°03'0 0.0
2017-Nov-09 11:30N 48°28' W 005°03'5 9.6
2017-Nov-09 11:00N 48°27' W 004°56'611.5
2017-Nov-09 10:31N 48°23' W 004°50'5 9.3
2017-Nov-09 10:00N 48°19' W 004°46'612.9
2017-Nov-09 09:30N 48°20' W 004°37'611.4
2017-Nov-09 09:01N 48°23' W 004°29'0 0.5
2017-Nov-09 08:30N 48°23' W 004°29'0 0.0
2017-Nov-09 08:00N 48°23' W 004°29'0 0.0
2017-Nov-09 07:29N 48°23' W 004°29'0 0.0
2017-Nov-09 06:59N 48°23' W 004°29'0 0.0
2017-Nov-09 06:29N 48°23' W 004°29'  

Dump ship's entire track history